NCAR-RAP Real-Time Weather Data

Output produced by METARs form (06 May 2021  16:56 UTC)
found at http://weather.rap.ucar.edu/surface/
 
KGCK 061554Z 09007KT 10SM FEW085 13/07 A3038 RMK AO2 SLP280 T01330072
KGCK 061454Z 06011KT 10SM CLR 11/07 A3037 RMK AO2 SLP277 T01110072 51016
KGCK 061354Z 03013KT 10SM CLR 09/06 A3037 RMK AO2 SLP275 T00890061
KGCK 061254Z 36010KT 10SM CLR 06/04 A3035 RMK AO2 SLP271 T00610039
KGCK 061154Z AUTO 33006KT 10SM CLR 04/03 A3032 RMK AO2 SLP262 70009 T00390028 10094 20033 51016
KGCK 061054Z AUTO 35009KT 10SM CLR 04/03 A3031 RMK AO2 SLP259 T00440028
KGCK 060954Z AUTO 34011KT 10SM CLR 04/03 A3029 RMK AO2 SLP257 T00440028
KGCK 060854Z AUTO 34008KT 10SM CLR 04/03 A3027 RMK AO2 SLP241 T00440028 51005
KGCK 060754Z AUTO 31006KT 10SM CLR 06/05 A3027 RMK AO2 SLP240 T00610050
KGCK 060654Z AUTO 29003KT 10SM CLR 07/05 A3026 RMK AO2 SLP238 T00670050
KGCK 060554Z AUTO 00000KT 10SM CLR 07/05 A3025 RMK AO2 SLP236 T00720050 10178 20061 402170056 51021
KGCK 060454Z AUTO 01007KT 10SM CLR 08/06 A3023 RMK AO2 SLP228 T00780056
KGCK 060354Z AUTO 30007KT 10SM CLR 10/08 A3022 RMK AO2 SLP224 T01000078
KGCK 060254Z AUTO 32007KT 10SM CLR 13/09 A3019 RMK AO2 SLP213 T01280094 53023